createdAt,value
2022-10-20T00:01:43.103Z,11.26
2022-10-20T00:04:48.081Z,11.91
2022-10-20T00:07:52.667Z,12.33
2022-10-20T00:10:58.046Z,13.03
2022-10-20T00:14:03.681Z,13.28
2022-10-20T00:17:07.693Z,13.65
2022-10-20T00:20:12.476Z,14.11
2022-10-20T00:23:17.207Z,14.54
2022-10-20T00:26:26.422Z,14.38
2022-10-20T00:29:31.267Z,14.66
2022-10-20T00:32:36.130Z,15.38
2022-10-20T00:35:40.922Z,15.32
2022-10-20T00:38:45.378Z,15.45
2022-10-20T00:41:49.784Z,15.59
2022-10-20T00:44:58.269Z,15.47
2022-10-20T00:48:09.720Z,16.23
2022-10-20T00:51:16.870Z,16.42
2022-10-20T00:54:27.131Z,16.27
2022-10-20T00:57:33.452Z,16.83
2022-10-20T01:00:41.303Z,16.31
2022-10-20T01:03:49.405Z,15.69
2022-10-20T01:06:53.688Z,15.18
2022-10-20T01:09:58.226Z,16.30
2022-10-20T01:13:24.445Z,16.79
2022-10-20T01:16:37.289Z,17.07
2022-10-20T01:20:24.547Z,17.56
2022-10-20T01:23:53.529Z,16.80
2022-10-20T01:27:28.127Z,17.07
2022-10-20T01:30:36.401Z,16.49
2022-10-20T01:33:49.172Z,15.87
2022-10-20T01:37:01.536Z,15.81
2022-10-20T01:40:29.486Z,16.74
2022-10-20T01:43:39.112Z,16.64
2022-10-20T01:46:44.909Z,16.76
2022-10-20T01:49:50.655Z,16.92
2022-10-20T01:53:01.062Z,16.59
2022-10-20T01:56:07.687Z,15.63
2022-10-20T01:59:22.546Z,15.31
2022-10-20T02:02:48.557Z,15.69
2022-10-20T02:06:17.102Z,15.76
2022-10-20T02:09:42.068Z,16.23
2022-10-20T02:12:51.935Z,16.04
2022-10-20T02:16:39.665Z,15.09
2022-10-20T02:19:46.687Z,15.33
2022-10-20T02:22:51.731Z,15.48
2022-10-20T02:25:57.214Z,15.54
2022-10-20T02:29:33.355Z,15.17
2022-10-20T02:32:40.140Z,15.05
2022-10-20T02:35:54.925Z,14.93
2022-10-20T02:38:59.196Z,14.65
2022-10-20T02:42:03.388Z,14.83
2022-10-20T02:45:09.215Z,15.02
2022-10-20T02:48:16.507Z,15.17
2022-10-20T02:51:21.867Z,14.87
2022-10-20T02:54:26.037Z,15.02
2022-10-20T02:57:30.634Z,14.78
2022-10-20T03:00:35.114Z,14.60
2022-10-20T03:03:39.611Z,14.47
2022-10-20T03:06:44.822Z,14.84
2022-10-20T03:09:49.919Z,14.91
2022-10-20T03:12:54.353Z,14.68
2022-10-20T03:15:58.787Z,14.74
2022-10-20T03:19:06.301Z,14.61
2022-10-20T03:22:12.010Z,14.58
2022-10-20T03:25:16.895Z,14.70
2022-10-20T03:28:21.246Z,14.66
2022-10-20T03:31:26.054Z,14.58
2022-10-20T03:34:30.399Z,14.74
2022-10-20T03:37:34.938Z,14.49
2022-10-20T03:40:39.180Z,14.70
2022-10-20T03:43:43.807Z,14.66
2022-10-20T03:46:48.285Z,14.76
2022-10-20T03:49:52.788Z,14.65
2022-10-20T03:52:56.983Z,14.67
2022-10-20T03:56:06.002Z,14.49
2022-10-20T03:59:12.486Z,14.54
2022-10-20T04:02:29.760Z,14.60
2022-10-20T04:05:34.020Z,14.60
2022-10-20T04:08:38.912Z,14.70
2022-10-20T04:11:43.417Z,14.71
2022-10-20T04:14:51.681Z,14.71
2022-10-20T04:17:56.344Z,14.57
2022-10-20T04:21:01.042Z,14.51
2022-10-20T04:24:06.564Z,14.68
2022-10-20T04:27:11.036Z,14.60
2022-10-20T04:30:18.300Z,14.55
2022-10-20T04:33:22.771Z,14.78
2022-10-20T04:36:27.016Z,14.55
2022-10-20T04:39:33.941Z,14.64
2022-10-20T04:42:38.515Z,14.76
2022-10-20T04:45:44.645Z,14.53
2022-10-20T04:48:50.274Z,14.61
2022-10-20T04:51:58.628Z,14.73
2022-10-20T04:55:05.167Z,14.63
2022-10-20T04:58:09.812Z,14.65
2022-10-20T05:01:14.107Z,14.71
2022-10-20T05:04:22.287Z,14.59
2022-10-20T05:07:26.839Z,14.32
2022-10-20T05:10:34.406Z,14.12
2022-10-20T05:13:41.392Z,14.30
2022-10-20T05:16:45.646Z,14.48
2022-10-20T05:19:50.442Z,14.48
2022-10-20T05:22:54.727Z,14.23
2022-10-20T05:25:59.387Z,14.20
2022-10-20T05:29:06.761Z,14.17
2022-10-20T05:32:12.813Z,14.10
2022-10-20T05:35:17.366Z,13.98
2022-10-20T05:38:21.655Z,13.92
2022-10-20T05:41:34.748Z,14.30
2022-10-20T05:44:42.472Z,14.36
2022-10-20T05:47:46.728Z,14.32
2022-10-20T05:50:51.358Z,14.12
2022-10-20T05:53:57.768Z,14.09
2022-10-20T05:57:02.394Z,13.99
2022-10-20T06:00:07.547Z,13.77
2022-10-20T06:03:17.604Z,13.85
2022-10-20T06:06:26.530Z,13.74
2022-10-20T06:09:30.845Z,13.54
2022-10-20T06:12:37.439Z,13.56
2022-10-20T06:15:42.071Z,13.59
2022-10-20T06:18:46.527Z,13.69
2022-10-20T06:21:51.144Z,13.37
2022-10-20T06:24:55.476Z,13.34
2022-10-20T06:27:59.669Z,13.22
2022-10-20T06:31:16.454Z,13.24
2022-10-20T06:34:23.580Z,13.30
2022-10-20T06:37:30.548Z,13.20
2022-10-20T06:40:36.115Z,12.97
2022-10-20T06:43:40.765Z,13.25
2022-10-20T06:46:46.009Z,13.15
2022-10-20T06:49:50.898Z,12.98
2022-10-20T06:52:55.278Z,12.90
2022-10-20T06:56:08.215Z,12.78
2022-10-20T06:59:12.546Z,12.79
2022-10-20T07:02:17.237Z,12.57
2022-10-20T07:05:23.004Z,12.47
2022-10-20T07:08:29.416Z,12.27
2022-10-20T07:11:34.115Z,12.42
2022-10-20T07:14:38.421Z,12.28
2022-10-20T07:17:42.832Z,12.26
2022-10-20T07:20:47.060Z,12.16
2022-10-20T07:23:52.669Z,12.18
2022-10-20T07:27:00.388Z,12.13
2022-10-20T07:30:05.714Z,12.06
2022-10-20T07:33:10.903Z,11.91
2022-10-20T07:36:21.953Z,11.83
2022-10-20T07:39:26.835Z,11.70
2022-10-20T07:42:31.427Z,11.58
2022-10-20T07:45:36.864Z,11.33
2022-10-20T07:48:42.914Z,11.24
2022-10-20T07:51:48.714Z,11.10
2022-10-20T07:55:01.596Z,10.99
2022-10-20T07:58:18.247Z,10.85
2022-10-20T08:01:22.628Z,10.69
2022-10-20T08:04:27.173Z,10.61
2022-10-20T08:07:31.763Z,10.36
2022-10-20T08:10:36.417Z,10.14
2022-10-20T08:13:42.371Z,10.01
2022-10-20T08:16:52.530Z,9.85
2022-10-20T08:23:15.380Z,9.55
2022-10-20T08:26:23.441Z,9.32
2022-10-20T08:29:29.022Z,9.17
2022-10-20T08:32:34.130Z,9.10
2022-10-20T08:35:38.616Z,8.92
2022-10-20T08:38:44.627Z,8.95
2022-10-20T08:42:08.910Z,8.92
2022-10-20T08:45:38.493Z,8.83
2022-10-20T08:48:44.581Z,8.70
2022-10-20T08:51:49.557Z,8.65
2022-10-20T08:54:58.851Z,8.63
2022-10-20T08:58:29.890Z,8.54
2022-10-20T09:01:37.171Z,8.13
2022-10-20T09:05:02.871Z,8.45
2022-10-20T09:08:10.894Z,8.58
2022-10-20T09:11:24.066Z,8.39
2022-10-20T09:14:31.912Z,8.28
2022-10-20T09:17:37.198Z,8.28
2022-10-20T09:20:53.363Z,8.18
2022-10-20T09:24:02.148Z,8.30
2022-10-20T09:27:25.051Z,8.42
2022-10-20T09:30:35.383Z,8.34
2022-10-20T09:33:39.731Z,8.31
2022-10-20T09:36:44.622Z,8.20
2022-10-20T09:39:55.559Z,8.08
2022-10-20T09:43:03.334Z,8.08
2022-10-20T09:46:11.332Z,7.70
2022-10-20T09:49:38.157Z,7.64
2022-10-20T09:52:49.879Z,7.76
2022-10-20T09:55:54.703Z,7.90
2022-10-20T09:59:02.261Z,7.55
2022-10-20T10:02:27.596Z,7.46
2022-10-20T10:05:34.595Z,7.30
2022-10-20T10:08:47.568Z,7.42
2022-10-20T10:12:03.560Z,7.32
2022-10-20T10:15:25.905Z,6.99
2022-10-20T10:18:30.641Z,6.49
2022-10-20T10:21:52.946Z,6.37
2022-10-20T10:24:58.218Z,6.23
2022-10-20T10:28:20.853Z,6.18
2022-10-20T10:31:27.044Z,6.10
2022-10-20T10:35:05.277Z,6.41
2022-10-20T10:38:13.992Z,6.38
2022-10-20T10:41:29.947Z,5.94
2022-10-20T10:44:34.291Z,5.66
2022-10-20T10:48:02.795Z,5.86
2022-10-20T10:51:19.819Z,5.63
2022-10-20T10:55:05.031Z,5.71
2022-10-20T10:58:30.247Z,5.05
2022-10-20T11:01:40.589Z,5.45
2022-10-20T11:08:47.886Z,5.65
2022-10-20T11:11:55.589Z,5.68
2022-10-20T11:15:26.397Z,5.56
2022-10-20T11:18:33.683Z,5.54
2022-10-20T11:21:56.826Z,5.25
2022-10-20T11:25:01.656Z,5.29
2022-10-20T11:28:26.853Z,5.34
2022-10-20T11:31:39.681Z,5.66
2022-10-20T11:35:24.226Z,5.71
2022-10-20T11:38:56.005Z,5.53
2022-10-20T11:42:14.213Z,5.21
2022-10-20T11:45:43.680Z,5.13
2022-10-20T11:48:53.434Z,5.20
2022-10-20T11:52:22.902Z,5.35
2022-10-20T11:55:44.730Z,5.44
2022-10-20T11:59:36.719Z,5.59
2022-10-20T12:03:04.878Z,5.33
2022-10-20T12:06:35.572Z,5.49
2022-10-20T12:09:58.232Z,5.77
2022-10-20T12:13:15.231Z,5.75
2022-10-20T12:16:54.321Z,5.65
2022-10-20T12:20:23.203Z,5.25
2022-10-20T12:23:53.950Z,5.25
2022-10-20T12:27:04.127Z,5.13
2022-10-20T12:30:38.718Z,5.22
2022-10-20T12:33:55.550Z,5.10
2022-10-20T12:37:19.398Z,5.04
2022-10-20T12:41:23.288Z,5.30
2022-10-20T12:44:30.755Z,5.15
2022-10-20T12:47:38.567Z,5.25
2022-10-20T12:50:50.263Z,5.06
2022-10-20T12:54:07.788Z,4.77
2022-10-20T12:57:43.936Z,4.89
2022-10-20T13:00:48.387Z,5.15
2022-10-20T13:03:53.722Z,5.12
2022-10-20T13:06:58.137Z,5.30
2022-10-20T13:10:04.326Z,5.30
2022-10-20T13:13:09.554Z,5.25
2022-10-20T13:16:21.142Z,5.14
2022-10-20T13:19:34.864Z,4.72
2022-10-20T13:26:25.391Z,5.02
2022-10-20T13:29:35.398Z,4.47
2022-10-20T13:33:33.397Z,4.87
2022-10-20T13:37:00.596Z,4.48
2022-10-20T13:40:11.758Z,4.43
2022-10-20T13:43:19.203Z,4.39
2022-10-20T13:46:46.957Z,4.63
2022-10-20T13:50:06.779Z,4.52
2022-10-20T13:53:23.093Z,4.37
2022-10-20T13:56:34.862Z,3.90
2022-10-20T13:59:41.871Z,3.96
2022-10-20T14:03:03.013Z,3.70
2022-10-20T14:06:07.171Z,3.68
2022-10-20T14:09:27.064Z,4.07
2022-10-20T14:12:33.358Z,3.76
2022-10-20T14:15:39.039Z,3.36
2022-10-20T14:18:43.444Z,3.31
2022-10-20T14:21:55.202Z,3.56
2022-10-20T14:25:01.042Z,3.13
2022-10-20T14:28:08.078Z,3.11
2022-10-20T14:31:14.960Z,3.40
2022-10-20T14:34:31.880Z,3.18
2022-10-20T14:37:42.956Z,3.39
2022-10-20T14:40:54.169Z,3.01
2022-10-20T14:44:12.190Z,2.92
2022-10-20T14:47:21.947Z,3.04
2022-10-20T14:50:28.899Z,2.85
2022-10-20T14:53:34.859Z,2.80
2022-10-20T14:56:44.206Z,2.70
2022-10-20T15:00:13.900Z,2.84
2022-10-20T15:03:18.894Z,2.92
2022-10-20T15:06:23.427Z,2.80
2022-10-20T15:09:33.937Z,3.01
2022-10-20T15:12:38.512Z,3.14
2022-10-20T15:15:42.995Z,3.14
2022-10-20T15:18:47.386Z,3.07
2022-10-20T15:22:09.186Z,2.83
2022-10-20T15:25:13.974Z,2.39
2022-10-20T15:28:27.368Z,2.14
2022-10-20T15:31:32.335Z,2.25
2022-10-20T15:34:36.682Z,2.26
2022-10-20T15:37:40.975Z,2.58
2022-10-20T15:40:45.523Z,2.68
2022-10-20T15:43:50.762Z,2.08
2022-10-20T15:46:54.968Z,2.16
2022-10-20T15:49:59.353Z,1.81
2022-10-20T15:53:03.710Z,1.80
2022-10-20T15:56:09.854Z,1.82
2022-10-20T15:59:14.379Z,1.93
2022-10-20T16:02:18.808Z,1.98
2022-10-20T16:05:25.245Z,2.06
2022-10-20T16:08:30.106Z,1.75
2022-10-20T16:11:34.643Z,1.88
2022-10-20T16:14:40.737Z,1.84
2022-10-20T16:17:45.833Z,1.76
2022-10-20T16:20:50.423Z,1.81
2022-10-20T16:23:54.979Z,1.86
2022-10-20T16:26:59.375Z,2.03
2022-10-20T16:30:05.669Z,2.09
2022-10-20T16:33:10.332Z,2.11
2022-10-20T16:36:17.528Z,1.98
2022-10-20T16:39:21.855Z,2.14
2022-10-20T16:42:27.302Z,2.28
2022-10-20T16:45:32.658Z,1.83
2022-10-20T16:48:41.500Z,1.83
2022-10-20T16:51:47.408Z,1.65
2022-10-20T16:54:51.691Z,1.64
2022-10-20T16:57:57.252Z,1.61
2022-10-20T17:01:09.637Z,1.68
2022-10-20T17:04:15.350Z,1.75
2022-10-20T17:07:20.140Z,1.77
2022-10-20T17:10:24.972Z,1.82
2022-10-20T17:13:30.582Z,1.80
2022-10-20T17:16:38.361Z,2.21
2022-10-20T17:19:44.218Z,2.23
2022-10-20T17:22:48.959Z,2.50
2022-10-20T17:26:04.054Z,2.28
2022-10-20T17:29:10.476Z,2.15
2022-10-20T17:32:17.444Z,2.07
2022-10-20T17:35:23.082Z,1.78
2022-10-20T17:38:29.063Z,1.93
2022-10-20T17:41:33.334Z,1.59
2022-10-20T17:44:37.777Z,1.40
2022-10-20T17:47:42.058Z,1.50
2022-10-20T17:50:46.797Z,1.74
2022-10-20T17:53:53.571Z,2.12
2022-10-20T17:56:58.388Z,1.94
2022-10-20T18:00:05.615Z,1.78
2022-10-20T18:03:15.558Z,1.78
2022-10-20T18:06:22.156Z,1.62
2022-10-20T18:09:26.635Z,1.70
2022-10-20T18:12:32.444Z,2.10
2022-10-20T18:15:42.672Z,2.21
2022-10-20T18:18:47.415Z,2.13
2022-10-20T18:21:51.959Z,2.02
2022-10-20T18:24:56.205Z,1.93
2022-10-20T18:28:00.755Z,1.98
2022-10-20T18:31:10.852Z,2.01
2022-10-20T18:34:18.154Z,2.23
2022-10-20T18:37:22.637Z,2.35
2022-10-20T18:40:26.876Z,2.37
2022-10-20T18:43:31.197Z,2.70
2022-10-20T18:46:35.928Z,2.77
2022-10-20T18:49:40.224Z,2.44
2022-10-20T18:52:44.780Z,2.23
2022-10-20T18:56:04.816Z,2.19
2022-10-20T18:59:11.453Z,2.36
2022-10-20T19:02:15.771Z,2.60
2022-10-20T19:05:20.607Z,2.29
2022-10-20T19:08:26.587Z,1.95
2022-10-20T19:11:33.075Z,2.02
2022-10-20T19:14:37.478Z,2.28
2022-10-20T19:17:41.816Z,2.53
2022-10-20T19:20:54.159Z,2.15
2022-10-20T19:24:02.263Z,2.42
2022-10-20T19:27:25.683Z,3.05
2022-10-20T19:30:36.233Z,3.01
2022-10-20T19:33:40.586Z,3.04
2022-10-20T19:36:48.658Z,2.92
2022-10-20T19:39:53.327Z,2.73
2022-10-20T19:42:57.605Z,2.71
2022-10-20T19:46:02.171Z,3.03
2022-10-20T19:52:18.196Z,2.80
2022-10-20T19:55:22.758Z,2.77
2022-10-20T19:58:27.484Z,3.02
2022-10-20T20:01:32.186Z,3.04
2022-10-20T20:04:36.845Z,3.09
2022-10-20T20:07:41.401Z,3.29
2022-10-20T20:10:53.906Z,3.64
2022-10-20T20:14:01.687Z,3.29
2022-10-20T20:17:07.427Z,3.48
2022-10-20T20:20:14.790Z,3.47
2022-10-20T20:23:26.047Z,3.56
2022-10-20T20:26:39.490Z,3.88
2022-10-20T20:29:44.033Z,4.01
2022-10-20T20:32:50.750Z,3.53
2022-10-20T20:36:01.006Z,3.30
2022-10-20T20:39:05.629Z,3.45
2022-10-20T20:42:10.201Z,3.57
2022-10-20T20:45:15.819Z,3.31
2022-10-20T20:48:20.457Z,3.25
2022-10-20T20:51:29.944Z,3.29
2022-10-20T20:54:34.465Z,3.59
2022-10-20T20:57:39.454Z,3.38
2022-10-20T21:00:43.929Z,3.61
2022-10-20T21:03:48.737Z,3.86
2022-10-20T21:07:02.529Z,3.62
2022-10-20T21:10:07.787Z,3.79
2022-10-20T21:13:12.493Z,4.02
2022-10-20T21:16:22.491Z,4.00
2022-10-20T21:19:27.179Z,3.97
2022-10-20T21:22:31.684Z,3.93
2022-10-20T21:25:36.107Z,4.08
2022-10-20T21:28:40.436Z,4.07
2022-10-20T21:31:44.625Z,3.85
2022-10-20T21:34:48.816Z,3.96
2022-10-20T21:37:53.091Z,4.10
2022-10-20T21:41:03.674Z,3.86
2022-10-20T21:44:09.179Z,4.37
2022-10-20T21:47:13.264Z,4.74
2022-10-20T21:50:17.905Z,5.02
2022-10-20T21:53:22.415Z,5.02
2022-10-20T21:56:27.016Z,5.05
2022-10-20T21:59:32.098Z,5.08
2022-10-20T22:02:37.193Z,5.06
2022-10-20T22:05:41.699Z,5.14
2022-10-20T22:08:50.668Z,5.10
2022-10-20T22:11:57.642Z,5.33
2022-10-20T22:15:01.933Z,5.27
2022-10-20T22:18:08.180Z,5.31
2022-10-20T22:21:15.392Z,5.52
2022-10-20T22:24:20.531Z,5.49
2022-10-20T22:27:31.644Z,5.50
2022-10-20T22:30:46.336Z,5.61
2022-10-20T22:33:58.236Z,5.71
2022-10-20T22:37:02.742Z,5.66
2022-10-20T22:40:07.757Z,5.61
2022-10-20T22:43:12.377Z,5.93
2022-10-20T22:46:17.135Z,6.26
2022-10-20T22:49:21.611Z,6.55
2022-10-20T22:52:26.003Z,6.59
2022-10-20T22:55:30.342Z,6.65
2022-10-20T22:58:35.016Z,6.66
2022-10-20T23:01:39.883Z,6.80
2022-10-20T23:04:44.008Z,6.79
2022-10-20T23:07:48.441Z,6.80
2022-10-20T23:10:59.939Z,6.86
2022-10-20T23:14:04.044Z,6.90
2022-10-20T23:17:08.551Z,6.94
2022-10-20T23:20:13.067Z,6.85
2022-10-20T23:23:17.264Z,6.86
2022-10-20T23:26:22.069Z,7.04
2022-10-20T23:29:26.644Z,7.10
2022-10-20T23:32:31.036Z,7.06
2022-10-20T23:35:39.557Z,7.44
2022-10-20T23:38:44.717Z,7.61
2022-10-20T23:41:49.022Z,7.73
2022-10-20T23:44:53.036Z,7.56
2022-10-20T23:47:57.684Z,7.63
2022-10-20T23:51:02.472Z,7.69
2022-10-20T23:54:06.797Z,7.78
2022-10-20T23:57:10.965Z,7.87
